sensor_id;sensor_type;location;lat;lon;timestamp;P1;durP1;ratioP1;P2;durP2;ratioP2
56541;SDS011;42438;53.174;6.730;2022-12-11T00:01:44;55.28;;;16.65;;
56541;SDS011;42438;53.174;6.730;2022-12-11T00:04:15;55.10;;;15.02;;
56541;SDS011;42438;53.174;6.730;2022-12-11T00:06:45;59.50;;;15.48;;
56541;SDS011;42438;53.174;6.730;2022-12-11T00:09:19;46.90;;;15.73;;
56541;SDS011;42438;53.174;6.730;2022-12-11T00:11:50;54.30;;;15.52;;
56541;SDS011;42438;53.174;6.730;2022-12-11T00:14:21;50.70;;;14.75;;
56541;SDS011;42438;53.174;6.730;2022-12-11T00:16:51;57.28;;;15.45;;
56541;SDS011;42438;53.174;6.730;2022-12-11T00:19:22;51.72;;;17.33;;
56541;SDS011;42438;53.174;6.730;2022-12-11T00:21:53;47.92;;;16.42;;
56541;SDS011;42438;53.174;6.730;2022-12-11T00:24:23;49.45;;;15.43;;
56541;SDS011;42438;53.174;6.730;2022-12-11T00:26:54;52.33;;;17.67;;
56541;SDS011;42438;53.174;6.730;2022-12-11T00:29:25;43.88;;;14.77;;
56541;SDS011;42438;53.174;6.730;2022-12-11T00:31:56;39.63;;;14.35;;
56541;SDS011;42438;53.174;6.730;2022-12-11T00:34:26;41.42;;;14.48;;
56541;SDS011;42438;53.174;6.730;2022-12-11T00:36:57;48.20;;;15.20;;
56541;SDS011;42438;53.174;6.730;2022-12-11T00:39:28;46.55;;;15.05;;
56541;SDS011;42438;53.174;6.730;2022-12-11T00:41:58;41.45;;;15.00;;
56541;SDS011;42438;53.174;6.730;2022-12-11T00:44:29;40.47;;;13.90;;
56541;SDS011;42438;53.174;6.730;2022-12-11T00:47:00;43.75;;;14.45;;
56541;SDS011;42438;53.174;6.730;2022-12-11T00:49:31;48.58;;;13.98;;
56541;SDS011;42438;53.174;6.730;2022-12-11T00:52:01;41.75;;;13.85;;
56541;SDS011;42438;53.174;6.730;2022-12-11T00:54:32;41.40;;;13.30;;
56541;SDS011;42438;53.174;6.730;2022-12-11T00:57:03;42.80;;;13.60;;
56541;SDS011;42438;53.174;6.730;2022-12-11T00:59:34;42.83;;;13.07;;
56541;SDS011;42438;53.174;6.730;2022-12-11T01:02:04;42.28;;;13.18;;
56541;SDS011;42438;53.174;6.730;2022-12-11T01:04:35;39.25;;;13.15;;
56541;SDS011;42438;53.174;6.730;2022-12-11T01:07:06;41.22;;;13.32;;
56541;SDS011;42438;53.174;6.730;2022-12-11T01:09:37;44.67;;;13.30;;
56541;SDS011;42438;53.174;6.730;2022-12-11T01:12:26;42.15;;;12.35;;
56541;SDS011;42438;53.174;6.730;2022-12-11T01:14:57;43.95;;;12.38;;
56541;SDS011;42438;53.174;6.730;2022-12-11T01:17:28;51.88;;;13.40;;
56541;SDS011;42438;53.174;6.730;2022-12-11T01:19:58;47.17;;;13.43;;
56541;SDS011;42438;53.174;6.730;2022-12-11T01:22:29;36.75;;;13.13;;
56541;SDS011;42438;53.174;6.730;2022-12-11T01:25:00;41.65;;;13.00;;
56541;SDS011;42438;53.174;6.730;2022-12-11T01:27:31;39.15;;;12.98;;
56541;SDS011;42438;53.174;6.730;2022-12-11T01:30:03;40.45;;;12.30;;
56541;SDS011;42438;53.174;6.730;2022-12-11T01:32:35;38.50;;;13.95;;
56541;SDS011;42438;53.174;6.730;2022-12-11T01:35:06;36.92;;;12.73;;
56541;SDS011;42438;53.174;6.730;2022-12-11T01:37:37;40.78;;;12.85;;
56541;SDS011;42438;53.174;6.730;2022-12-11T01:40:08;45.75;;;12.48;;
56541;SDS011;42438;53.174;6.730;2022-12-11T01:42:43;42.88;;;12.90;;
56541;SDS011;42438;53.174;6.730;2022-12-11T01:45:35;42.63;;;12.65;;
56541;SDS011;42438;53.174;6.730;2022-12-11T01:48:15;46.92;;;13.18;;
56541;SDS011;42438;53.174;6.730;2022-12-11T01:50:51;38.67;;;12.85;;
56541;SDS011;42438;53.174;6.730;2022-12-11T01:53:28;42.30;;;12.95;;
56541;SDS011;42438;53.174;6.730;2022-12-11T01:56:04;40.00;;;12.80;;
56541;SDS011;42438;53.174;6.730;2022-12-11T01:58:41;40.85;;;12.40;;
56541;SDS011;42438;53.174;6.730;2022-12-11T02:01:19;40.40;;;12.07;;
56541;SDS011;42438;53.174;6.730;2022-12-11T02:04:21;37.53;;;11.60;;
56541;SDS011;42438;53.174;6.730;2022-12-11T02:06:52;36.33;;;12.80;;
56541;SDS011;42438;53.174;6.730;2022-12-11T02:09:27;36.80;;;11.40;;
56541;SDS011;42438;53.174;6.730;2022-12-11T02:12:01;41.05;;;12.63;;
56541;SDS011;42438;53.174;6.730;2022-12-11T02:17:40;34.60;;;10.98;;
56541;SDS011;42438;53.174;6.730;2022-12-11T02:20:36;38.85;;;12.30;;
56541;SDS011;42438;53.174;6.730;2022-12-11T02:23:24;39.17;;;13.18;;
56541;SDS011;42438;53.174;6.730;2022-12-11T02:29:18;40.75;;;12.52;;
56541;SDS011;42438;53.174;6.730;2022-12-11T02:32:02;37.60;;;12.18;;
56541;SDS011;42438;53.174;6.730;2022-12-11T02:34:40;39.50;;;11.57;;
56541;SDS011;42438;53.174;6.730;2022-12-11T02:37:17;37.70;;;12.02;;
56541;SDS011;42438;53.174;6.730;2022-12-11T02:39:50;45.42;;;12.63;;
56541;SDS011;42438;53.174;6.730;2022-12-11T02:42:26;45.35;;;13.75;;
56541;SDS011;42438;53.174;6.730;2022-12-11T02:44:59;44.15;;;12.82;;
56541;SDS011;42438;53.174;6.730;2022-12-11T02:47:32;44.75;;;12.68;;
56541;SDS011;42438;53.174;6.730;2022-12-11T02:50:05;36.53;;;12.35;;
56541;SDS011;42438;53.174;6.730;2022-12-11T02:52:40;43.42;;;12.15;;
56541;SDS011;42438;53.174;6.730;2022-12-11T02:55:12;39.85;;;12.80;;
56541;SDS011;42438;53.174;6.730;2022-12-11T02:58:29;41.88;;;13.05;;
56541;SDS011;42438;53.174;6.730;2022-12-11T03:00:43;41.00;;;12.18;;
56541;SDS011;42438;53.174;6.730;2022-12-11T03:03:15;37.03;;;12.70;;
56541;SDS011;42438;53.174;6.730;2022-12-11T03:05:46;45.58;;;12.13;;
56541;SDS011;42438;53.174;6.730;2022-12-11T03:08:17;40.35;;;11.52;;
56541;SDS011;42438;53.174;6.730;2022-12-11T03:10:47;45.13;;;13.50;;
56541;SDS011;42438;53.174;6.730;2022-12-11T03:13:18;44.28;;;12.63;;
56541;SDS011;42438;53.174;6.730;2022-12-11T03:24:21;41.28;;;12.48;;
56541;SDS011;42438;53.174;6.730;2022-12-11T03:26:59;45.67;;;12.63;;
56541;SDS011;42438;53.174;6.730;2022-12-11T03:29:36;45.05;;;12.88;;
56541;SDS011;42438;53.174;6.730;2022-12-11T03:32:12;48.50;;;13.77;;
56541;SDS011;42438;53.174;6.730;2022-12-11T03:35:35;42.00;;;13.18;;
56541;SDS011;42438;53.174;6.730;2022-12-11T03:37:46;44.75;;;12.35;;
56541;SDS011;42438;53.174;6.730;2022-12-11T03:40:18;41.88;;;13.68;;
56541;SDS011;42438;53.174;6.730;2022-12-11T03:45:25;43.08;;;13.80;;
56541;SDS011;42438;53.174;6.730;2022-12-11T03:47:58;41.05;;;12.85;;
56541;SDS011;42438;53.174;6.730;2022-12-11T03:50:32;46.33;;;12.32;;
56541;SDS011;42438;53.174;6.730;2022-12-11T03:53:04;43.60;;;13.20;;
56541;SDS011;42438;53.174;6.730;2022-12-11T03:55:35;44.47;;;12.27;;
56541;SDS011;42438;53.174;6.730;2022-12-11T04:00:39;34.40;;;11.65;;
56541;SDS011;42438;53.174;6.730;2022-12-11T04:03:09;47.13;;;13.05;;
56541;SDS011;42438;53.174;6.730;2022-12-11T04:05:44;46.40;;;14.02;;
56541;SDS011;42438;53.174;6.730;2022-12-11T04:08:20;41.15;;;11.98;;
56541;SDS011;42438;53.174;6.730;2022-12-11T04:10:52;46.80;;;13.88;;
56541;SDS011;42438;53.174;6.730;2022-12-11T04:13:41;43.47;;;13.20;;
56541;SDS011;42438;53.174;6.730;2022-12-11T04:16:11;34.80;;;11.57;;
56541;SDS011;42438;53.174;6.730;2022-12-11T04:18:42;42.95;;;12.30;;
56541;SDS011;42438;53.174;6.730;2022-12-11T04:21:32;40.22;;;12.80;;
56541;SDS011;42438;53.174;6.730;2022-12-11T04:24:32;44.80;;;12.48;;
56541;SDS011;42438;53.174;6.730;2022-12-11T04:27:03;36.53;;;12.05;;
56541;SDS011;42438;53.174;6.730;2022-12-11T04:29:33;43.35;;;11.98;;
56541;SDS011;42438;53.174;6.730;2022-12-11T04:32:04;43.00;;;12.38;;
56541;SDS011;42438;53.174;6.730;2022-12-11T04:34:35;40.67;;;13.63;;
56541;SDS011;42438;53.174;6.730;2022-12-11T04:37:05;40.90;;;11.80;;
56541;SDS011;42438;53.174;6.730;2022-12-11T04:39:36;40.17;;;11.38;;
56541;SDS011;42438;53.174;6.730;2022-12-11T04:42:07;43.72;;;11.95;;
56541;SDS011;42438;53.174;6.730;2022-12-11T04:44:37;43.78;;;12.80;;
56541;SDS011;42438;53.174;6.730;2022-12-11T04:47:08;37.88;;;11.38;;
56541;SDS011;42438;53.174;6.730;2022-12-11T04:49:39;37.67;;;12.73;;
56541;SDS011;42438;53.174;6.730;2022-12-11T04:52:09;36.80;;;11.90;;
56541;SDS011;42438;53.174;6.730;2022-12-11T04:54:40;38.30;;;11.23;;
56541;SDS011;42438;53.174;6.730;2022-12-11T04:57:11;33.72;;;11.18;;
56541;SDS011;42438;53.174;6.730;2022-12-11T04:59:41;40.55;;;12.85;;
56541;SDS011;42438;53.174;6.730;2022-12-11T05:02:12;40.05;;;11.57;;
56541;SDS011;42438;53.174;6.730;2022-12-11T05:04:43;41.05;;;12.40;;
56541;SDS011;42438;53.174;6.730;2022-12-11T05:07:14;43.25;;;12.25;;
56541;SDS011;42438;53.174;6.730;2022-12-11T05:09:46;39.13;;;12.32;;
56541;SDS011;42438;53.174;6.730;2022-12-11T05:12:16;39.38;;;11.70;;
56541;SDS011;42438;53.174;6.730;2022-12-11T05:14:50;39.15;;;12.70;;
56541;SDS011;42438;53.174;6.730;2022-12-11T05:17:22;41.47;;;12.05;;
56541;SDS011;42438;53.174;6.730;2022-12-11T05:19:53;41.25;;;13.07;;
56541;SDS011;42438;53.174;6.730;2022-12-11T05:22:23;45.10;;;13.20;;
56541;SDS011;42438;53.174;6.730;2022-12-11T05:24:54;38.20;;;12.48;;
56541;SDS011;42438;53.174;6.730;2022-12-11T05:27:25;38.08;;;12.25;;
56541;SDS011;42438;53.174;6.730;2022-12-11T05:29:55;40.72;;;12.63;;
56541;SDS011;42438;53.174;6.730;2022-12-11T05:32:27;41.33;;;12.20;;
56541;SDS011;42438;53.174;6.730;2022-12-11T05:34:57;40.45;;;12.48;;
56541;SDS011;42438;53.174;6.730;2022-12-11T05:37:28;41.67;;;13.15;;
56541;SDS011;42438;53.174;6.730;2022-12-11T05:39:59;39.20;;;13.10;;
56541;SDS011;42438;53.174;6.730;2022-12-11T05:42:29;37.60;;;11.93;;
56541;SDS011;42438;53.174;6.730;2022-12-11T05:45:00;37.08;;;12.13;;
56541;SDS011;42438;53.174;6.730;2022-12-11T05:47:31;38.55;;;14.02;;
56541;SDS011;42438;53.174;6.730;2022-12-11T05:50:01;33.42;;;12.02;;
56541;SDS011;42438;53.174;6.730;2022-12-11T05:52:32;39.70;;;12.75;;
56541;SDS011;42438;53.174;6.730;2022-12-11T05:55:03;36.05;;;11.93;;
56541;SDS011;42438;53.174;6.730;2022-12-11T05:57:34;40.20;;;13.35;;
56541;SDS011;42438;53.174;6.730;2022-12-11T06:00:05;42.30;;;13.07;;
56541;SDS011;42438;53.174;6.730;2022-12-11T06:02:36;41.63;;;12.77;;
56541;SDS011;42438;53.174;6.730;2022-12-11T06:05:07;44.22;;;13.40;;
56541;SDS011;42438;53.174;6.730;2022-12-11T06:07:37;44.30;;;12.60;;
56541;SDS011;42438;53.174;6.730;2022-12-11T06:10:08;42.25;;;12.20;;
56541;SDS011;42438;53.174;6.730;2022-12-11T06:12:39;40.20;;;11.95;;
56541;SDS011;42438;53.174;6.730;2022-12-11T06:15:10;39.03;;;12.02;;
56541;SDS011;42438;53.174;6.730;2022-12-11T06:17:41;45.95;;;13.65;;
56541;SDS011;42438;53.174;6.730;2022-12-11T06:20:11;37.95;;;12.65;;
56541;SDS011;42438;53.174;6.730;2022-12-11T06:22:42;42.05;;;13.25;;
56541;SDS011;42438;53.174;6.730;2022-12-11T06:25:13;47.75;;;14.30;;
56541;SDS011;42438;53.174;6.730;2022-12-11T06:27:43;38.88;;;12.88;;
56541;SDS011;42438;53.174;6.730;2022-12-11T06:30:14;42.60;;;13.52;;
56541;SDS011;42438;53.174;6.730;2022-12-11T06:32:45;82.15;;;29.58;;
56541;SDS011;42438;53.174;6.730;2022-12-11T06:35:17;55.47;;;22.35;;
56541;SDS011;42438;53.174;6.730;2022-12-11T06:37:47;47.83;;;17.77;;
56541;SDS011;42438;53.174;6.730;2022-12-11T06:40:18;40.35;;;14.25;;
56541;SDS011;42438;53.174;6.730;2022-12-11T06:42:49;46.58;;;14.30;;
56541;SDS011;42438;53.174;6.730;2022-12-11T06:45:20;40.47;;;12.23;;
56541;SDS011;42438;53.174;6.730;2022-12-11T06:47:50;39.13;;;12.63;;
56541;SDS011;42438;53.174;6.730;2022-12-11T06:50:21;34.45;;;11.40;;
56541;SDS011;42438;53.174;6.730;2022-12-11T06:52:52;56.50;;;19.08;;
56541;SDS011;42438;53.174;6.730;2022-12-11T06:55:22;49.38;;;18.27;;
56541;SDS011;42438;53.174;6.730;2022-12-11T06:57:53;52.72;;;16.83;;
56541;SDS011;42438;53.174;6.730;2022-12-11T07:00:24;59.38;;;19.25;;
56541;SDS011;42438;53.174;6.730;2022-12-11T07:02:54;49.20;;;15.63;;
56541;SDS011;42438;53.174;6.730;2022-12-11T07:05:25;44.15;;;13.07;;
56541;SDS011;42438;53.174;6.730;2022-12-11T07:07:56;45.08;;;13.07;;
56541;SDS011;42438;53.174;6.730;2022-12-11T07:10:27;45.85;;;13.10;;
56541;SDS011;42438;53.174;6.730;2022-12-11T07:12:58;47.65;;;14.48;;
56541;SDS011;42438;53.174;6.730;2022-12-11T07:15:28;44.60;;;15.10;;
56541;SDS011;42438;53.174;6.730;2022-12-11T07:17:59;43.78;;;13.90;;
56541;SDS011;42438;53.174;6.730;2022-12-11T07:20:29;43.38;;;13.07;;
56541;SDS011;42438;53.174;6.730;2022-12-11T07:23:00;37.42;;;12.27;;
56541;SDS011;42438;53.174;6.730;2022-12-11T07:25:31;44.28;;;14.52;;
56541;SDS011;42438;53.174;6.730;2022-12-11T07:28:01;45.33;;;14.80;;
56541;SDS011;42438;53.174;6.730;2022-12-11T07:30:32;44.97;;;14.95;;
56541;SDS011;42438;53.174;6.730;2022-12-11T07:33:03;38.63;;;13.05;;
56541;SDS011;42438;53.174;6.730;2022-12-11T07:35:34;33.70;;;11.50;;
56541;SDS011;42438;53.174;6.730;2022-12-11T07:38:05;41.40;;;12.00;;
56541;SDS011;42438;53.174;6.730;2022-12-11T07:40:36;40.47;;;11.57;;
56541;SDS011;42438;53.174;6.730;2022-12-11T07:43:07;37.00;;;10.90;;
56541;SDS011;42438;53.174;6.730;2022-12-11T07:45:37;36.75;;;11.18;;
56541;SDS011;42438;53.174;6.730;2022-12-11T07:48:08;38.38;;;11.63;;
56541;SDS011;42438;53.174;6.730;2022-12-11T07:50:39;36.95;;;11.55;;
56541;SDS011;42438;53.174;6.730;2022-12-11T07:53:10;46.83;;;11.45;;
56541;SDS011;42438;53.174;6.730;2022-12-11T07:55:40;38.55;;;11.50;;
56541;SDS011;42438;53.174;6.730;2022-12-11T07:58:11;39.53;;;11.73;;
56541;SDS011;42438;53.174;6.730;2022-12-11T08:00:43;41.28;;;11.38;;
56541;SDS011;42438;53.174;6.730;2022-12-11T08:03:14;45.40;;;11.47;;
56541;SDS011;42438;53.174;6.730;2022-12-11T08:05:48;38.75;;;11.93;;
56541;SDS011;42438;53.174;6.730;2022-12-11T08:08:19;44.58;;;12.77;;
56541;SDS011;42438;53.174;6.730;2022-12-11T08:10:49;36.22;;;12.35;;
56541;SDS011;42438;53.174;6.730;2022-12-11T08:13:20;41.80;;;11.93;;
56541;SDS011;42438;53.174;6.730;2022-12-11T08:15:51;35.55;;;12.32;;
56541;SDS011;42438;53.174;6.730;2022-12-11T08:18:21;42.05;;;10.80;;
56541;SDS011;42438;53.174;6.730;2022-12-11T08:20:52;45.70;;;12.32;;
56541;SDS011;42438;53.174;6.730;2022-12-11T08:23:23;33.25;;;11.95;;
56541;SDS011;42438;53.174;6.730;2022-12-11T08:25:54;38.10;;;13.18;;
56541;SDS011;42438;53.174;6.730;2022-12-11T08:28:24;40.85;;;12.38;;
56541;SDS011;42438;53.174;6.730;2022-12-11T08:30:55;40.13;;;11.63;;
56541;SDS011;42438;53.174;6.730;2022-12-11T08:33:26;48.15;;;12.25;;
56541;SDS011;42438;53.174;6.730;2022-12-11T08:35:57;36.67;;;13.07;;
56541;SDS011;42438;53.174;6.730;2022-12-11T08:38:27;42.97;;;12.38;;
56541;SDS011;42438;53.174;6.730;2022-12-11T08:41:06;46.83;;;13.13;;
56541;SDS011;42438;53.174;6.730;2022-12-11T08:43:41;35.53;;;10.82;;
56541;SDS011;42438;53.174;6.730;2022-12-11T08:46:12;39.75;;;12.73;;
56541;SDS011;42438;53.174;6.730;2022-12-11T08:48:43;42.50;;;13.18;;
56541;SDS011;42438;53.174;6.730;2022-12-11T08:51:15;37.35;;;11.18;;
56541;SDS011;42438;53.174;6.730;2022-12-11T08:53:49;42.65;;;12.60;;
56541;SDS011;42438;53.174;6.730;2022-12-11T08:58:54;36.28;;;11.52;;
56541;SDS011;42438;53.174;6.730;2022-12-11T09:01:25;36.13;;;11.10;;
56541;SDS011;42438;53.174;6.730;2022-12-11T09:03:56;46.63;;;12.65;;
56541;SDS011;42438;53.174;6.730;2022-12-11T09:06:28;43.60;;;14.65;;
56541;SDS011;42438;53.174;6.730;2022-12-11T09:11:33;36.92;;;11.50;;
56541;SDS011;42438;53.174;6.730;2022-12-11T09:14:05;39.80;;;11.65;;
56541;SDS011;42438;53.174;6.730;2022-12-11T09:16:37;44.22;;;13.18;;
56541;SDS011;42438;53.174;6.730;2022-12-11T09:19:12;39.08;;;12.85;;
56541;SDS011;42438;53.174;6.730;2022-12-11T09:21:44;51.58;;;16.35;;
56541;SDS011;42438;53.174;6.730;2022-12-11T09:24:14;67.25;;;24.38;;
56541;SDS011;42438;53.174;6.730;2022-12-11T09:26:45;72.50;;;30.42;;
56541;SDS011;42438;53.174;6.730;2022-12-11T09:29:16;112.97;;;38.42;;
56541;SDS011;42438;53.174;6.730;2022-12-11T09:31:47;61.65;;;24.13;;
56541;SDS011;42438;53.174;6.730;2022-12-11T09:34:19;67.32;;;23.85;;
56541;SDS011;42438;53.174;6.730;2022-12-11T09:36:50;60.85;;;23.50;;
56541;SDS011;42438;53.174;6.730;2022-12-11T09:39:20;60.97;;;22.33;;
56541;SDS011;42438;53.174;6.730;2022-12-11T09:47:02;50.80;;;15.30;;
56541;SDS011;42438;53.174;6.730;2022-12-11T09:49:41;47.80;;;16.00;;
56541;SDS011;42438;53.174;6.730;2022-12-11T09:52:25;58.30;;;20.67;;
56541;SDS011;42438;53.174;6.730;2022-12-11T09:55:15;58.22;;;17.13;;
56541;SDS011;42438;53.174;6.730;2022-12-11T10:00:38;48.22;;;17.73;;
56541;SDS011;42438;53.174;6.730;2022-12-11T10:06:23;47.70;;;15.07;;
56541;SDS011;42438;53.174;6.730;2022-12-11T10:09:02;49.15;;;14.60;;
56541;SDS011;42438;53.174;6.730;2022-12-11T10:17:42;97.93;;;31.15;;
56541;SDS011;42438;53.174;6.730;2022-12-11T10:20:18;60.30;;;23.42;;
56541;SDS011;42438;53.174;6.730;2022-12-11T10:22:53;61.85;;;20.27;;
56541;SDS011;42438;53.174;6.730;2022-12-11T10:25:26;66.60;;;21.47;;
56541;SDS011;42438;53.174;6.730;2022-12-11T10:28:07;55.63;;;19.30;;
56541;SDS011;42438;53.174;6.730;2022-12-11T10:30:51;77.53;;;27.40;;
56541;SDS011;42438;53.174;6.730;2022-12-11T10:33:33;65.20;;;24.35;;
56541;SDS011;42438;53.174;6.730;2022-12-11T10:36:18;69.90;;;22.60;;
56541;SDS011;42438;53.174;6.730;2022-12-11T10:38:55;57.90;;;21.75;;
56541;SDS011;42438;53.174;6.730;2022-12-11T10:41:36;53.33;;;17.80;;
56541;SDS011;42438;53.174;6.730;2022-12-11T10:47:00;49.42;;;16.73;;
56541;SDS011;42438;53.174;6.730;2022-12-11T10:49:33;50.63;;;15.95;;
56541;SDS011;42438;53.174;6.730;2022-12-11T10:52:09;51.95;;;18.25;;
56541;SDS011;42438;53.174;6.730;2022-12-11T10:54:59;56.00;;;17.75;;
56541;SDS011;42438;53.174;6.730;2022-12-11T10:57:33;49.20;;;15.88;;
56541;SDS011;42438;53.174;6.730;2022-12-11T11:00:06;52.80;;;17.67;;
56541;SDS011;42438;53.174;6.730;2022-12-11T11:02:55;46.47;;;15.98;;
56541;SDS011;42438;53.174;6.730;2022-12-11T11:05:28;49.25;;;15.95;;
56541;SDS011;42438;53.174;6.730;2022-12-11T11:08:11;48.25;;;15.57;;
56541;SDS011;42438;53.174;6.730;2022-12-11T11:10:54;42.45;;;13.65;;
56541;SDS011;42438;53.174;6.730;2022-12-11T11:13:29;54.88;;;15.18;;
56541;SDS011;42438;53.174;6.730;2022-12-11T11:16:04;45.42;;;14.30;;
56541;SDS011;42438;53.174;6.730;2022-12-11T11:18:38;43.90;;;15.63;;
56541;SDS011;42438;53.174;6.730;2022-12-11T11:21:17;47.00;;;14.93;;
56541;SDS011;42438;53.174;6.730;2022-12-11T11:23:50;42.92;;;14.02;;
56541;SDS011;42438;53.174;6.730;2022-12-11T11:26:22;44.22;;;15.07;;
56541;SDS011;42438;53.174;6.730;2022-12-11T11:28:56;46.28;;;14.63;;
56541;SDS011;42438;53.174;6.730;2022-12-11T11:31:31;45.80;;;14.90;;
56541;SDS011;42438;53.174;6.730;2022-12-11T11:34:07;48.58;;;16.48;;
56541;SDS011;42438;53.174;6.730;2022-12-11T11:36:55;44.50;;;14.68;;
56541;SDS011;42438;53.174;6.730;2022-12-11T11:39:45;43.80;;;13.88;;
56541;SDS011;42438;53.174;6.730;2022-12-11T11:42:18;45.42;;;14.50;;
56541;SDS011;42438;53.174;6.730;2022-12-11T11:48:35;40.83;;;13.98;;
56541;SDS011;42438;53.174;6.730;2022-12-11T11:53:49;45.63;;;14.38;;
56541;SDS011;42438;53.174;6.730;2022-12-11T11:56:26;44.88;;;13.73;;
56541;SDS011;42438;53.174;6.730;2022-12-11T12:01:57;44.13;;;13.93;;
56541;SDS011;42438;53.174;6.730;2022-12-11T12:04:32;41.60;;;14.13;;
56541;SDS011;42438;53.174;6.730;2022-12-11T12:07:06;38.50;;;13.95;;
56541;SDS011;42438;53.174;6.730;2022-12-11T12:09:48;48.50;;;15.52;;
56541;SDS011;42438;53.174;6.730;2022-12-11T12:12:48;43.08;;;13.65;;
56541;SDS011;42438;53.174;6.730;2022-12-11T12:15:42;44.03;;;14.18;;
56541;SDS011;42438;53.174;6.730;2022-12-11T12:21:34;43.25;;;14.43;;
56541;SDS011;42438;53.174;6.730;2022-12-11T12:27:22;59.50;;;19.45;;
56541;SDS011;42438;53.174;6.730;2022-12-11T12:30:10;143.90;;;43.90;;
56541;SDS011;42438;53.174;6.730;2022-12-11T12:32:58;114.57;;;35.58;;
56541;SDS011;42438;53.174;6.730;2022-12-11T12:35:57;163.43;;;47.83;;
56541;SDS011;42438;53.174;6.730;2022-12-11T12:38:50;148.77;;;44.10;;
56541;SDS011;42438;53.174;6.730;2022-12-11T12:41:36;241.52;;;64.60;;
56541;SDS011;42438;53.174;6.730;2022-12-11T12:44:13;232.23;;;62.07;;
56541;SDS011;42438;53.174;6.730;2022-12-11T12:46:52;266.42;;;71.28;;
56541;SDS011;42438;53.174;6.730;2022-12-11T12:49:34;211.45;;;59.63;;
56541;SDS011;42438;53.174;6.730;2022-12-11T12:52:18;227.65;;;57.72;;
56541;SDS011;42438;53.174;6.730;2022-12-11T12:54:55;307.70;;;79.03;;
56541;SDS011;42438;53.174;6.730;2022-12-11T12:57:52;212.50;;;58.60;;
56541;SDS011;42438;53.174;6.730;2022-12-11T13:00:31;293.17;;;75.30;;
56541;SDS011;42438;53.174;6.730;2022-12-11T13:03:16;305.23;;;82.22;;
56541;SDS011;42438;53.174;6.730;2022-12-11T13:05:55;278.25;;;75.20;;
56541;SDS011;42438;53.174;6.730;2022-12-11T13:11:11;115.80;;;33.97;;
56541;SDS011;42438;53.174;6.730;2022-12-11T13:16:37;127.22;;;40.85;;
56541;SDS011;42438;53.174;6.730;2022-12-11T13:24:48;80.03;;;26.85;;
56541;SDS011;42438;53.174;6.730;2022-12-11T13:32:50;124.32;;;37.95;;
56541;SDS011;42438;53.174;6.730;2022-12-11T13:35:33;93.25;;;30.00;;
56541;SDS011;42438;53.174;6.730;2022-12-11T13:38:22;75.60;;;25.15;;
56541;SDS011;42438;53.174;6.730;2022-12-11T13:40:54;80.38;;;25.27;;
56541;SDS011;42438;53.174;6.730;2022-12-11T13:43:27;90.78;;;26.92;;
56541;SDS011;42438;53.174;6.730;2022-12-11T13:46:01;110.07;;;32.88;;
56541;SDS011;42438;53.174;6.730;2022-12-11T13:48:38;76.90;;;26.40;;
56541;SDS011;42438;53.174;6.730;2022-12-11T13:51:18;80.33;;;26.53;;
56541;SDS011;42438;53.174;6.730;2022-12-11T13:56:34;76.38;;;25.58;;
56541;SDS011;42438;53.174;6.730;2022-12-11T13:59:04;125.90;;;40.70;;
56541;SDS011;42438;53.174;6.730;2022-12-11T14:02:13;67.20;;;21.33;;
56541;SDS011;42438;53.174;6.730;2022-12-11T14:05:07;63.13;;;22.08;;
56541;SDS011;42438;53.174;6.730;2022-12-11T14:07:41;81.95;;;25.60;;
56541;SDS011;42438;53.174;6.730;2022-12-11T14:10:19;74.88;;;24.00;;
56541;SDS011;42438;53.174;6.730;2022-12-11T14:13:02;129.13;;;39.97;;
56541;SDS011;42438;53.174;6.730;2022-12-11T14:15:36;84.75;;;27.83;;
56541;SDS011;42438;53.174;6.730;2022-12-11T14:18:12;66.43;;;22.58;;
56541;SDS011;42438;53.174;6.730;2022-12-11T14:20:52;90.45;;;29.23;;
56541;SDS011;42438;53.174;6.730;2022-12-11T14:23:25;112.57;;;38.45;;
56541;SDS011;42438;53.174;6.730;2022-12-11T14:28:35;117.53;;;42.10;;
56541;SDS011;42438;53.174;6.730;2022-12-11T14:31:07;76.80;;;29.83;;
56541;SDS011;42438;53.174;6.730;2022-12-11T14:33:42;92.53;;;35.35;;
56541;SDS011;42438;53.174;6.730;2022-12-11T14:36:17;54.17;;;20.52;;
56541;SDS011;42438;53.174;6.730;2022-12-11T14:38:56;55.22;;;18.23;;
56541;SDS011;42438;53.174;6.730;2022-12-11T14:41:41;48.92;;;16.67;;
56541;SDS011;42438;53.174;6.730;2022-12-11T14:44:18;49.25;;;16.10;;
56541;SDS011;42438;53.174;6.730;2022-12-11T14:47:12;51.33;;;18.10;;
56541;SDS011;42438;53.174;6.730;2022-12-11T14:52:24;49.20;;;15.43;;
56541;SDS011;42438;53.174;6.730;2022-12-11T14:55:02;43.80;;;15.63;;
56541;SDS011;42438;53.174;6.730;2022-12-11T14:57:54;49.65;;;15.27;;
56541;SDS011;42438;53.174;6.730;2022-12-11T15:00:29;46.65;;;15.57;;
56541;SDS011;42438;53.174;6.730;2022-12-11T15:03:03;53.40;;;16.30;;
56541;SDS011;42438;53.174;6.730;2022-12-11T15:05:46;45.85;;;14.48;;
56541;SDS011;42438;53.174;6.730;2022-12-11T15:08:20;45.40;;;16.27;;
56541;SDS011;42438;53.174;6.730;2022-12-11T15:13:34;53.45;;;16.40;;
56541;SDS011;42438;53.174;6.730;2022-12-11T15:16:08;46.13;;;14.68;;
56541;SDS011;42438;53.174;6.730;2022-12-11T15:18:46;50.67;;;18.10;;
56541;SDS011;42438;53.174;6.730;2022-12-11T15:21:26;47.15;;;15.50;;
56541;SDS011;42438;53.174;6.730;2022-12-11T15:24:04;46.97;;;15.73;;
56541;SDS011;42438;53.174;6.730;2022-12-11T15:26:36;45.40;;;15.95;;
56541;SDS011;42438;53.174;6.730;2022-12-11T15:31:59;46.20;;;14.57;;
56541;SDS011;42438;53.174;6.730;2022-12-11T15:34:47;48.83;;;15.30;;
56541;SDS011;42438;53.174;6.730;2022-12-11T15:40:00;46.13;;;16.10;;
56541;SDS011;42438;53.174;6.730;2022-12-11T15:42:38;51.67;;;16.60;;
56541;SDS011;42438;53.174;6.730;2022-12-11T15:45:14;40.92;;;14.55;;
56541;SDS011;42438;53.174;6.730;2022-12-11T15:47:47;58.75;;;18.50;;
56541;SDS011;42438;53.174;6.730;2022-12-11T15:50:20;143.38;;;47.40;;
56541;SDS011;42438;53.174;6.730;2022-12-11T15:52:51;157.93;;;58.00;;
56541;SDS011;42438;53.174;6.730;2022-12-11T15:55:24;85.00;;;31.23;;
56541;SDS011;42438;53.174;6.730;2022-12-11T15:57:59;131.23;;;48.25;;
56541;SDS011;42438;53.174;6.730;2022-12-11T16:00:33;142.75;;;48.42;;
56541;SDS011;42438;53.174;6.730;2022-12-11T16:03:04;137.10;;;47.15;;
56541;SDS011;42438;53.174;6.730;2022-12-11T16:05:35;113.13;;;33.60;;
56541;SDS011;42438;53.174;6.730;2022-12-11T16:08:05;93.95;;;31.33;;
56541;SDS011;42438;53.174;6.730;2022-12-11T16:10:36;102.85;;;33.63;;
56541;SDS011;42438;53.174;6.730;2022-12-11T16:13:07;168.55;;;54.90;;
56541;SDS011;42438;53.174;6.730;2022-12-11T16:15:42;88.68;;;30.45;;
56541;SDS011;42438;53.174;6.730;2022-12-11T16:18:16;59.85;;;20.88;;
56541;SDS011;42438;53.174;6.730;2022-12-11T16:20:49;104.25;;;35.75;;
56541;SDS011;42438;53.174;6.730;2022-12-11T16:23:21;90.40;;;30.60;;
56541;SDS011;42438;53.174;6.730;2022-12-11T16:25:51;119.72;;;39.83;;
56541;SDS011;42438;53.174;6.730;2022-12-11T16:28:22;88.35;;;31.88;;
56541;SDS011;42438;53.174;6.730;2022-12-11T16:30:53;126.32;;;42.25;;
56541;SDS011;42438;53.174;6.730;2022-12-11T16:33:23;211.80;;;73.50;;
56541;SDS011;42438;53.174;6.730;2022-12-11T16:35:54;84.07;;;29.17;;
56541;SDS011;42438;53.174;6.730;2022-12-11T16:38:25;114.68;;;40.95;;